createdAt,value
2017-10-10T00:00:40.255Z,77.48
2017-10-10T00:01:50.332Z,77.48
2017-10-10T00:03:00.748Z,77.38
2017-10-10T00:04:11.148Z,77.48
2017-10-10T00:05:21.211Z,77.48
2017-10-10T00:06:31.285Z,77.57
2017-10-10T00:07:41.686Z,77.48
2017-10-10T00:08:52.823Z,77.48
2017-10-10T00:10:02.955Z,77.28
2017-10-10T00:11:13.038Z,77.48
2017-10-10T00:12:23.446Z,77.28
2017-10-10T00:13:33.862Z,77.48
2017-10-10T00:14:43.930Z,77.57
2017-10-10T00:15:54.335Z,77.67
2017-10-10T00:17:04.739Z,77.38
2017-10-10T00:18:15.164Z,77.38
2017-10-10T00:19:25.244Z,77.67
2017-10-10T00:20:35.648Z,77.38
2017-10-10T00:21:46.042Z,77.38
2017-10-10T00:22:56.460Z,77.48
2017-10-10T00:24:06.855Z,77.67
2017-10-10T00:25:17.258Z,77.48
2017-10-10T00:26:27.365Z,77.38
2017-10-10T00:27:37.838Z,77.48
2017-10-10T00:28:48.242Z,77.48
2017-10-10T00:29:58.651Z,77.28
2017-10-10T00:31:09.067Z,77.38
2017-10-10T00:32:19.474Z,77.28
2017-10-10T00:33:29.950Z,77.38
2017-10-10T00:34:40.358Z,77.09
2017-10-10T00:35:50.783Z,77.28
2017-10-10T00:37:00.860Z,77.28
2017-10-10T00:38:11.309Z,77.28
2017-10-10T00:39:21.706Z,77.19
2017-10-10T00:40:32.110Z,77.19
2017-10-10T00:41:42.184Z,77.19
2017-10-10T00:42:52.578Z,77.28
2017-10-10T00:44:02.980Z,77.28
2017-10-10T00:45:13.414Z,77.28
2017-10-10T00:46:23.811Z,77.28
2017-10-10T00:47:34.206Z,77.19
2017-10-10T00:48:44.290Z,77.19
2017-10-10T00:49:54.697Z,77.38
2017-10-10T00:51:05.158Z,77.42
2017-10-10T00:52:15.241Z,77.42
2017-10-10T00:53:25.315Z,77.42
2017-10-10T00:54:35.391Z,77.38
2017-10-10T00:55:45.468Z,77.23
2017-10-10T00:56:55.850Z,77.42
2017-10-10T00:58:06.245Z,77.33
2017-10-10T00:59:16.645Z,77.33
2017-10-10T01:00:27.040Z,77.33
2017-10-10T01:01:37.436Z,77.42
2017-10-10T01:02:47.838Z,77.23
2017-10-10T01:03:57.939Z,77.33
2017-10-10T01:05:08.369Z,77.33
2017-10-10T01:06:18.767Z,77.42
2017-10-10T01:07:28.820Z,77.23
2017-10-10T01:08:39.225Z,77.33
2017-10-10T01:09:49.313Z,77.13
2017-10-10T01:10:59.715Z,77.42
2017-10-10T01:12:09.796Z,77.13
2017-10-10T01:13:20.219Z,77.13
2017-10-10T01:14:30.615Z,77.23
2017-10-10T01:15:40.689Z,77.33
2017-10-10T01:16:50.761Z,77.13
2017-10-10T01:18:00.833Z,77.42
2017-10-10T01:19:11.260Z,77.13
2017-10-10T01:20:21.049Z,77.33
2017-10-10T01:21:30.803Z,77.33
2017-10-10T01:22:40.896Z,77.42
2017-10-10T01:23:51.281Z,77.33
2017-10-10T01:25:01.685Z,77.33
2017-10-10T01:26:12.077Z,77.33
2017-10-10T01:27:22.482Z,77.42
2017-10-10T01:28:32.879Z,77.33
2017-10-10T01:29:43.279Z,77.42
2017-10-10T01:30:53.675Z,77.42
2017-10-10T01:32:04.145Z,77.13
2017-10-10T01:33:14.216Z,77.42
2017-10-10T01:34:24.631Z,77.33
2017-10-10T01:35:35.037Z,77.42
2017-10-10T01:36:45.422Z,77.33
2017-10-10T01:37:56.021Z,77.33
2017-10-10T01:39:06.112Z,77.33
2017-10-10T01:40:16.527Z,77.51
2017-10-10T01:41:26.945Z,77.42
2017-10-10T01:42:37.338Z,77.42
2017-10-10T01:43:47.756Z,77.23
2017-10-10T01:44:57.857Z,77.42
2017-10-10T01:46:08.266Z,77.33
2017-10-10T01:47:18.685Z,77.23
2017-10-10T01:48:28.741Z,77.42
2017-10-10T01:49:39.178Z,77.33
2017-10-10T01:50:49.256Z,77.33
2017-10-10T01:51:59.314Z,77.8
2017-10-10T01:53:09.053Z,77.33
2017-10-10T01:54:19.452Z,77.51
2017-10-10T01:55:29.524Z,77.61
2017-10-10T01:56:39.925Z,78.19
2017-10-10T01:57:50.000Z,77.8
2017-10-10T01:59:00.410Z,77.7
2017-10-10T02:00:10.824Z,77.9
2017-10-10T02:01:21.281Z,77.9
2017-10-10T02:02:31.680Z,77.99
2017-10-10T02:03:42.101Z,77.9
2017-10-10T02:04:52.552Z,77.9
2017-10-10T02:06:02.979Z,77.8
2017-10-10T02:07:13.441Z,77.9
2017-10-10T02:08:23.195Z,77.99
2017-10-10T02:09:33.280Z,77.99
2017-10-10T02:10:43.680Z,77.9
2017-10-10T02:11:53.763Z,77.99
2017-10-10T02:13:03.560Z,77.9
2017-10-10T02:14:13.626Z,77.86
2017-10-10T02:15:24.042Z,77.57
2017-10-10T02:16:33.779Z,77.86
2017-10-10T02:17:44.196Z,77.8
2017-10-10T02:18:54.588Z,77.99
2017-10-10T02:20:05.010Z,77.9
2017-10-10T02:21:15.412Z,77.95
2017-10-10T02:22:25.823Z,77.8
2017-10-10T02:23:36.526Z,77.8
2017-10-10T02:24:46.926Z,78.09
2017-10-10T02:25:56.999Z,77.8
2017-10-10T02:27:07.395Z,77.61
2017-10-10T02:28:17.799Z,77.61
2017-10-10T02:29:27.881Z,77.8
2017-10-10T02:30:38.286Z,77.61
2017-10-10T02:31:48.366Z,77.8
2017-10-10T02:32:58.779Z,78.09
2017-10-10T02:34:08.877Z,77.9
2017-10-10T02:35:19.282Z,77.99
2017-10-10T02:36:29.357Z,77.99
2017-10-10T02:37:39.426Z,77.99
2017-10-10T02:38:49.829Z,77.9
2017-10-10T02:40:00.236Z,77.76
2017-10-10T02:41:10.662Z,77.8
2017-10-10T02:42:21.143Z,77.8
2017-10-10T02:43:31.556Z,77.76
2017-10-10T02:44:41.967Z,77.67
2017-10-10T02:45:52.073Z,77.9
2017-10-10T02:47:02.487Z,77.99
2017-10-10T02:48:12.953Z,77.86
2017-10-10T02:49:23.364Z,77.86
2017-10-10T02:50:33.440Z,77.86
2017-10-10T02:51:43.872Z,77.86
2017-10-10T02:52:54.251Z,77.9
2017-10-10T02:54:04.710Z,77.76
2017-10-10T02:55:14.812Z,78.09
2017-10-10T02:56:25.215Z,77.86
2017-10-10T02:57:34.956Z,77.9
2017-10-10T02:58:45.365Z,77.7
2017-10-10T02:59:55.826Z,77.61
2017-10-10T03:01:06.219Z,77.8
2017-10-10T03:02:16.617Z,77.8
2017-10-10T03:33:58.271Z,74.96
2017-10-10T03:35:08.667Z,75.24
2017-10-10T03:36:18.731Z,76.48
2017-10-10T03:37:29.122Z,77.06
2017-10-10T03:38:39.535Z,77.34
2017-10-10T03:39:49.620Z,78.1
2017-10-10T03:40:59.409Z,77.91
2017-10-10T03:42:09.818Z,78.05
2017-10-10T03:43:19.891Z,78.33
2017-10-10T03:44:30.290Z,78.43
2017-10-10T03:45:40.092Z,78.52
2017-10-10T03:46:50.488Z,78.56
2017-10-10T03:48:00.556Z,78.66
2017-10-10T03:49:10.958Z,78.37
2017-10-10T03:50:21.353Z,78.28
2017-10-10T03:51:31.416Z,78.41
2017-10-10T03:52:41.829Z,78.51
2017-10-10T03:53:51.910Z,77.94
2017-10-10T03:55:01.648Z,77.94
2017-10-10T03:56:12.046Z,78.16
2017-10-10T03:57:22.502Z,78.36
2017-10-10T03:58:32.575Z,78.26
2017-10-10T03:59:42.970Z,78.36
2017-10-10T04:00:53.376Z,77.87
2017-10-10T04:02:03.770Z,77.69
2017-10-10T04:03:13.899Z,78.2
2017-10-10T04:04:23.978Z,77.92
2017-10-10T04:05:34.400Z,78.11
2017-10-10T04:06:44.477Z,78.11
2017-10-10T04:07:54.542Z,78.11
2017-10-10T04:09:04.967Z,77.82
2017-10-10T04:10:15.030Z,77.72
2017-10-10T04:11:25.457Z,77.92
2017-10-10T04:12:35.848Z,78.01
2017-10-10T04:13:45.932Z,78.01
2017-10-10T04:14:56.347Z,77.72
2017-10-10T04:16:06.749Z,77.82
2017-10-10T04:17:16.827Z,77.92
2017-10-10T04:18:27.253Z,77.82
2017-10-10T04:19:37.647Z,77.38
2017-10-10T04:20:48.047Z,77.67
2017-10-10T04:21:58.446Z,77.76
2017-10-10T04:23:08.537Z,77.38
2017-10-10T04:24:18.957Z,77.28
2017-10-10T04:25:29.679Z,77.86
2017-10-10T04:26:39.772Z,77.86
2017-10-10T04:27:50.169Z,77.86
2017-10-10T04:29:00.570Z,77.86
2017-10-10T04:30:10.640Z,77.67
2017-10-10T04:31:21.053Z,77.95
2017-10-10T04:32:31.459Z,78.05
2017-10-10T04:33:41.528Z,77.95
2017-10-10T04:34:51.617Z,77.76
2017-10-10T04:36:01.676Z,77.95
2017-10-10T04:37:12.070Z,77.86
2017-10-10T04:38:22.464Z,78.49
2017-10-10T04:39:32.868Z,78.01
2017-10-10T04:40:43.280Z,78.3
2017-10-10T04:41:53.349Z,78.39
2017-10-10T04:43:03.435Z,78.39
2017-10-10T04:44:13.830Z,78.2
2017-10-10T04:45:23.914Z,78.11
2017-10-10T04:46:34.325Z,78.2
2017-10-10T04:47:44.386Z,78.11
2017-10-10T04:48:54.793Z,78.01
2017-10-10T04:50:05.248Z,78.2
2017-10-10T04:51:15.644Z,78.2
2017-10-10T04:52:25.403Z,78.2
2017-10-10T04:53:35.467Z,77.92
2017-10-10T04:54:45.882Z,78.2
2017-10-10T04:55:56.298Z,78.11
2017-10-10T04:57:06.695Z,78.11
2017-10-10T04:58:17.122Z,78.11
2017-10-10T04:59:27.546Z,78.49
2017-10-10T05:00:37.962Z,78.39
2017-10-10T05:01:48.364Z,78.3
2017-10-10T05:02:58.764Z,78.11
2017-10-10T05:04:09.165Z,78.11
2017-10-10T05:05:19.578Z,78.3
2017-10-10T05:06:29.967Z,78.3
2017-10-10T05:07:40.371Z,78.39
2017-10-10T05:08:50.754Z,78.11
2017-10-10T05:10:01.162Z,77.72
2017-10-10T05:11:11.574Z,77.92
2017-10-10T05:12:21.648Z,78.01
2017-10-10T05:13:31.759Z,78.11
2017-10-10T05:14:42.169Z,78.3
2017-10-10T05:15:52.820Z,78.11
2017-10-10T05:17:02.900Z,78.11
2017-10-10T05:18:12.969Z,77.72
2017-10-10T05:19:23.371Z,77.92
2017-10-10T05:20:33.781Z,77.72
2017-10-10T05:21:44.188Z,77.82
2017-10-10T05:22:54.635Z,77.82
2017-10-10T05:24:05.061Z,77.92
2017-10-10T05:25:15.457Z,77.82
2017-10-10T05:26:25.850Z,77.92
2017-10-10T05:27:36.258Z,77.63
2017-10-10T05:28:46.695Z,77.53
2017-10-10T05:29:56.766Z,77.44
2017-10-10T05:31:06.856Z,77.25
2017-10-10T05:32:17.256Z,77.25
2017-10-10T05:33:27.653Z,77.28
2017-10-10T05:34:38.110Z,77.48
2017-10-10T05:35:48.520Z,77.48
2017-10-10T05:36:58.934Z,77.48
2017-10-10T05:38:09.346Z,77.67
2017-10-10T05:39:19.419Z,77.48
2017-10-10T05:40:29.488Z,77.57
2017-10-10T05:41:39.922Z,77.38
2017-10-10T05:42:50.324Z,77.57
2017-10-10T05:44:00.420Z,77.76
2017-10-10T05:45:10.494Z,77.38
2017-10-10T05:46:20.896Z,77.33
2017-10-10T05:47:30.638Z,77.7
2017-10-10T05:48:41.044Z,77.38
2017-10-10T05:49:51.460Z,77.33
2017-10-10T05:51:01.552Z,77.42
2017-10-10T05:52:11.641Z,77.7
2017-10-10T05:53:22.032Z,77.61
2017-10-10T05:54:32.818Z,77.42
2017-10-10T05:55:43.215Z,77.51
2017-10-10T05:56:53.551Z,77.33
2017-10-10T05:58:03.888Z,77.42
2017-10-10T05:59:14.219Z,77.33
2017-10-10T06:00:24.603Z,77.51
2017-10-10T06:01:34.925Z,77.7
2017-10-10T06:02:44.942Z,77.51
2017-10-10T06:03:55.286Z,77.61
2017-10-10T06:05:05.626Z,77.8
2017-10-10T06:06:16.010Z,77.42
2017-10-10T06:07:26.361Z,77.23
2017-10-10T06:08:36.374Z,77.26
2017-10-10T06:09:46.718Z,77.17
2017-10-10T06:10:57.062Z,77.08
2017-10-10T06:12:07.399Z,77.26
2017-10-10T06:13:17.426Z,77.36
2017-10-10T06:14:27.441Z,76.89
2017-10-10T06:15:37.786Z,76.98
2017-10-10T06:16:48.137Z,77.11
2017-10-10T06:17:58.462Z,77.21
2017-10-10T06:19:08.494Z,77.31
2017-10-10T06:20:18.838Z,77.02
2017-10-10T06:21:28.858Z,77.02
2017-10-10T06:22:38.863Z,76.92
2017-10-10T06:23:49.215Z,77.02
2017-10-10T06:24:59.574Z,76.92
2017-10-10T06:26:09.932Z,77.11
2017-10-10T06:27:19.612Z,77.02
2017-10-10T06:28:29.945Z,77.31
2017-10-10T06:29:39.986Z,77.31
2017-10-10T06:30:50.343Z,77.02
2017-10-10T06:32:00.688Z,76.92
2017-10-10T06:33:11.160Z,77.31
2017-10-10T06:34:21.496Z,77.25
2017-10-10T06:35:31.878Z,76.96
2017-10-10T06:36:41.561Z,76.96
2017-10-10T06:37:51.917Z,76.77
2017-10-10T06:39:01.944Z,76.57
2017-10-10T06:40:11.631Z,76.57
2017-10-10T06:41:20.994Z,76.1
2017-10-10T06:42:31.315Z,76.14
2017-10-10T06:43:41.008Z,76.23
2017-10-10T06:44:51.381Z,76.42
2017-10-10T06:46:01.706Z,76.32
2017-10-10T06:47:12.054Z,76.52
2017-10-10T06:48:22.400Z,76.65
2017-10-10T06:49:32.729Z,76.37
2017-10-10T06:50:43.074Z,76.27
2017-10-10T06:51:53.409Z,75.95
2017-10-10T06:53:03.750Z,76.46
2017-10-10T06:54:13.773Z,76.9
2017-10-10T06:55:24.105Z,76.81
2017-10-10T06:56:33.785Z,76.84
2017-10-10T06:57:43.797Z,76.84
2017-10-10T06:58:53.810Z,77.04
2017-10-10T07:00:04.152Z,76.65
2017-10-10T07:01:14.168Z,76.94
2017-10-10T07:02:24.513Z,76.71
2017-10-10T07:03:34.861Z,76.84
2017-10-10T07:04:44.880Z,76.81
2017-10-10T07:05:55.226Z,77.09
2017-10-10T07:07:05.784Z,77.04
2017-10-10T07:08:16.123Z,76.81
2017-10-10T07:09:26.134Z,77.04
2017-10-10T07:10:36.187Z,76.94
2017-10-10T07:11:46.209Z,77.23
2017-10-10T07:12:56.455Z,77.04
2017-10-10T07:14:06.483Z,77.13
2017-10-10T07:15:16.500Z,77.33
2017-10-10T07:16:26.986Z,77.61
2017-10-10T07:17:37.212Z,77.23
2017-10-10T07:18:47.562Z,77.23
2017-10-10T07:19:57.254Z,77.51
2017-10-10T07:21:08.447Z,77.38
2017-10-10T07:22:18.782Z,76.75
2017-10-10T07:23:29.131Z,77.23
2017-10-10T07:24:39.466Z,77.42
2017-10-10T07:25:49.496Z,77.13
2017-10-10T07:26:59.826Z,76.65
2017-10-10T07:28:09.786Z,76.56
2017-10-10T07:29:19.836Z,76.27
2017-10-10T07:30:30.964Z,76.56
2017-10-10T07:31:42.823Z,76.59
2017-10-10T07:32:53.687Z,76.59
2017-10-10T07:34:04.570Z,76.31
2017-10-10T07:35:15.560Z,76.31
2017-10-10T07:36:25.916Z,76.88
2017-10-10T07:37:36.264Z,77.26
2017-10-10T07:38:46.280Z,76.88
2017-10-10T07:39:56.629Z,76.79
2017-10-10T07:41:06.951Z,77.17
2017-10-10T07:42:17.295Z,77.17
2017-10-10T07:43:27.627Z,77.56
2017-10-10T07:44:37.962Z,77.71
2017-10-10T07:45:48.295Z,77.51
2017-10-10T07:46:58.631Z,77.42
2017-10-10T07:48:08.960Z,77.71
2017-10-10T07:49:19.306Z,77.71
2017-10-10T07:50:29.632Z,77.42
2017-10-10T07:51:39.980Z,77.71
2017-10-10T07:52:50.000Z,77.42
2017-10-10T07:54:00.344Z,77.23
2017-10-10T07:55:10.702Z,77.46
2017-10-10T07:56:21.052Z,76.88
2017-10-10T07:57:31.421Z,76.84
2017-10-10T07:58:41.812Z,77.04
2017-10-10T07:59:52.151Z,77.04
2017-10-10T08:01:02.484Z,77.04
2017-10-10T08:02:12.837Z,77.13
2017-10-10T08:03:23.167Z,76.98
2017-10-10T08:04:33.184Z,77.33
2017-10-10T08:05:43.525Z,77.23
2017-10-10T08:06:53.583Z,77.04
2017-10-10T08:08:03.922Z,77.08
2017-10-10T08:09:14.261Z,76.94
2017-10-10T08:10:24.607Z,77.13
2017-10-10T08:11:34.621Z,77.04
2017-10-10T08:12:44.947Z,77.23
2017-10-10T08:13:55.283Z,77.17
2017-10-10T08:15:05.294Z,77.04
2017-10-10T08:16:15.637Z,77.13
2017-10-10T08:17:26.011Z,77.23
2017-10-10T08:18:36.415Z,77.13
2017-10-10T08:19:46.440Z,77.36
2017-10-10T08:20:56.768Z,77.33
2017-10-10T08:22:07.097Z,77.23
2017-10-10T08:23:17.445Z,77.17
2017-10-10T08:24:27.448Z,77.08
2017-10-10T08:25:37.458Z,76.98
2017-10-10T08:26:47.791Z,76.69
2017-10-10T08:27:57.470Z,77.08
2017-10-10T08:29:07.817Z,76.98
2017-10-10T08:30:18.226Z,76.88
2017-10-10T08:31:28.590Z,76.5
2017-10-10T08:32:38.593Z,76.31
2017-10-10T08:33:48.622Z,76.12
2017-10-10T08:34:58.982Z,76.31
2017-10-10T08:36:09.332Z,76.34
2017-10-10T08:37:19.661Z,76.54
2017-10-10T08:38:29.999Z,76.54
2017-10-10T08:39:40.346Z,76.06
2017-10-10T08:40:50.379Z,76.25
2017-10-10T08:42:00.714Z,76.25
2017-10-10T08:43:11.086Z,76.25
2017-10-10T08:44:21.438Z,76.25
2017-10-10T08:45:31.456Z,76.57
2017-10-10T08:46:41.789Z,76.34
2017-10-10T08:47:52.165Z,76.09
2017-10-10T08:49:02.506Z,76
2017-10-10T08:50:12.861Z,75.81
2017-10-10T08:51:23.220Z,75.56
2017-10-10T08:52:33.547Z,75.56
2017-10-10T08:53:43.906Z,75.37
2017-10-10T08:54:53.919Z,75.27
2017-10-10T08:56:04.246Z,75.4
2017-10-10T08:57:14.607Z,75.4
2017-10-10T08:58:23.980Z,75.59
2017-10-10T08:59:33.408Z,75.59
2017-10-10T09:00:43.744Z,75.59
2017-10-10T09:01:53.443Z,75.31
2017-10-10T09:03:03.807Z,75.31
2017-10-10T09:04:13.815Z,75.98
2017-10-10T09:05:24.194Z,75.69
2017-10-10T09:06:34.557Z,76.07
2017-10-10T09:07:44.563Z,75.98
2017-10-10T09:08:54.930Z,76.17
2017-10-10T09:10:04.946Z,75.98
2017-10-10T09:11:15.282Z,76.46
2017-10-10T09:12:25.303Z,76.26
2017-10-10T09:13:34.994Z,76.46
2017-10-10T09:14:45.009Z,76.56
2017-10-10T09:15:55.346Z,76.75
2017-10-10T09:17:05.748Z,76.56
2017-10-10T09:18:16.099Z,76.75
2017-10-10T09:19:26.457Z,76.56
2017-10-10T09:20:36.163Z,76.61
2017-10-10T09:21:45.849Z,76.75
2017-10-10T09:22:56.203Z,76.52
2017-10-10T09:24:06.555Z,76.42
2017-10-10T09:25:16.886Z,76.42
2017-10-10T09:26:26.896Z,76.42
2017-10-10T09:27:36.609Z,76.23
2017-10-10T09:28:46.639Z,76.32
2017-10-10T09:29:56.985Z,76.42
2017-10-10T09:31:07.331Z,76.42
2017-10-10T09:32:17.672Z,76.61
2017-10-10T09:33:28.023Z,76.81
2017-10-10T09:34:38.028Z,76.42
2017-10-10T09:35:47.714Z,76.04
2017-10-10T09:36:58.087Z,76.04
2017-10-10T09:38:08.435Z,76.07
2017-10-10T09:39:18.461Z,76.04
2017-10-10T09:40:28.818Z,76.07
2017-10-10T09:41:38.524Z,76.17
2017-10-10T09:42:48.545Z,76.46
2017-10-10T09:43:58.567Z,76.46
2017-10-10T09:45:08.614Z,76.17
2017-10-10T09:46:18.651Z,76.17
2017-10-10T09:47:29.050Z,76.07
2017-10-10T09:48:39.380Z,76.14
2017-10-10T09:49:49.407Z,76.71
2017-10-10T09:50:59.769Z,76.71
2017-10-10T09:52:09.784Z,76.42
2017-10-10T09:53:19.798Z,76.23
2017-10-10T09:54:29.494Z,76.71
2017-10-10T09:55:39.847Z,76.42
2017-10-10T09:56:50.209Z,76.42
2017-10-10T09:58:00.228Z,76.29
2017-10-10T09:59:10.578Z,76.42
2017-10-10T10:00:20.935Z,76.61
2017-10-10T10:01:31.281Z,76.04
2017-10-10T10:02:41.644Z,76.23
2017-10-10T10:03:51.338Z,76.04
2017-10-10T10:05:01.792Z,75.94
2017-10-10T10:06:12.126Z,76.07
2017-10-10T10:07:22.475Z,76.14
2017-10-10T10:08:32.502Z,76.04
2017-10-10T10:09:42.847Z,76.23
2017-10-10T10:10:52.878Z,76.81
2017-10-10T10:12:03.225Z,76.52
2017-10-10T10:13:13.249Z,76.61
2017-10-10T10:14:23.597Z,76.81
2017-10-10T10:15:33.938Z,76.61
2017-10-10T10:16:44.344Z,76.42
2017-10-10T10:17:54.375Z,76.23
2017-10-10T10:19:04.737Z,76.14
2017-10-10T10:20:15.080Z,76.39
2017-10-10T10:21:25.424Z,76.29
2017-10-10T10:22:35.769Z,76.39
2017-10-10T10:23:46.111Z,76.48
2017-10-10T10:24:56.451Z,76.77
2017-10-10T10:26:07.703Z,76.52
2017-10-10T10:27:18.021Z,76.23
2017-10-10T10:28:28.641Z,76.23
2017-10-10T10:29:38.997Z,76.14
2017-10-10T10:30:49.345Z,76.61
2017-10-10T10:31:59.500Z,76.14
2017-10-10T10:33:10.078Z,76.42
2017-10-10T10:34:20.491Z,76.23
2017-10-10T10:35:30.216Z,76.42
2017-10-10T10:36:40.232Z,76.23
2017-10-10T10:37:50.579Z,76.61
2017-10-10T10:39:00.949Z,76.52
2017-10-10T10:40:10.694Z,76.61
2017-10-10T10:41:21.095Z,76.61
2017-10-10T10:42:31.098Z,76.42
2017-10-10T10:43:41.474Z,76.52
2017-10-10T10:44:51.859Z,76.71
2017-10-10T10:46:02.230Z,76.14
2017-10-10T10:47:12.579Z,76.04
2017-10-10T10:48:24.275Z,76.07
2017-10-10T10:49:35.745Z,75.69
2017-10-10T10:50:45.783Z,76.07
2017-10-10T10:51:56.148Z,75.59
2017-10-10T10:53:06.492Z,75.49
2017-10-10T10:54:16.840Z,74.96
2017-10-10T10:55:27.197Z,74.51
2017-10-10T10:56:37.560Z,74.61
2017-10-10T10:57:47.652Z,74.93
2017-10-10T10:58:58.002Z,74.45
2017-10-10T11:00:08.351Z,74.36
2017-10-10T11:01:21.958Z,74.36
2017-10-10T11:02:35.275Z,74.93
2017-10-10T11:03:45.683Z,74.97
2017-10-10T11:04:56.031Z,74.97
2017-10-10T11:06:06.035Z,74.4
2017-10-10T11:07:18.123Z,74.2
2017-10-10T11:08:28.130Z,74.72
2017-10-10T11:09:38.524Z,74.43
2017-10-10T11:10:48.548Z,74.62
2017-10-10T11:11:58.902Z,74.82
2017-10-10T11:13:09.242Z,75.1
2017-10-10T11:14:19.599Z,74.91
2017-10-10T11:15:29.983Z,75.01
2017-10-10T11:16:40.332Z,75.1
2017-10-10T11:17:50.696Z,75.2
2017-10-10T11:19:00.746Z,75.1
2017-10-10T11:20:11.109Z,74.82
2017-10-10T11:21:21.464Z,74.95
2017-10-10T11:22:31.822Z,74.95
2017-10-10T11:23:42.193Z,74.79
2017-10-10T11:24:52.567Z,74.89
2017-10-10T11:26:02.939Z,74.79
2017-10-10T11:27:13.340Z,74.6
2017-10-10T11:28:23.688Z,75.09
2017-10-10T11:29:34.551Z,74.6
2017-10-10T11:30:44.887Z,75.09
2017-10-10T11:31:54.935Z,75.09
2017-10-10T11:33:05.290Z,74.89
2017-10-10T11:34:15.335Z,75.18
2017-10-10T11:35:25.664Z,76.01
2017-10-10T11:36:36.021Z,76.01
2017-10-10T11:37:46.026Z,75.09
2017-10-10T11:38:56.368Z,74.99
2017-10-10T11:40:06.726Z,76.01
2017-10-10T11:41:17.092Z,75.62
2017-10-10T11:42:27.118Z,76.01
2017-10-10T11:43:37.164Z,75.62
2017-10-10T11:44:47.523Z,75.62
2017-10-10T11:45:57.573Z,75.43
2017-10-10T11:47:07.613Z,75.72
2017-10-10T11:48:17.983Z,75.85
2017-10-10T11:49:28.674Z,75.62
2017-10-10T11:50:41.144Z,75.72
2017-10-10T11:51:51.186Z,75.82
2017-10-10T11:53:01.204Z,75.82
2017-10-10T11:54:11.556Z,75.82
2017-10-10T11:55:21.575Z,75.53
2017-10-10T11:56:31.967Z,75.82
2017-10-10T11:57:42.352Z,76.01
2017-10-10T11:58:52.699Z,76.3
2017-10-10T12:00:03.059Z,76.3
2017-10-10T12:01:13.072Z,76.65
2017-10-10T12:02:23.467Z,75.97
2017-10-10T12:03:33.491Z,76.36
2017-10-10T12:04:43.557Z,75.92
2017-10-10T12:05:53.574Z,75.62
2017-10-10T12:07:03.927Z,75.82
2017-10-10T12:08:13.666Z,75.62
2017-10-10T12:09:24.017Z,75.72
2017-10-10T12:10:34.379Z,75.82
2017-10-10T12:11:44.393Z,76.1
2017-10-10T12:12:56.388Z,76.1
2017-10-10T12:14:08.583Z,75.88
2017-10-10T12:15:21.965Z,76.55
2017-10-10T12:16:34.925Z,76.01
2017-10-10T12:17:45.275Z,75.82
2017-10-10T12:18:55.629Z,75.62
2017-10-10T12:20:05.681Z,75.62
2017-10-10T12:21:16.056Z,76.01
2017-10-10T12:22:26.413Z,75.62
2017-10-10T12:23:36.783Z,75.82
2017-10-10T12:24:47.127Z,75.72
2017-10-10T12:25:57.477Z,75.62
2017-10-10T12:27:08.659Z,75.76
2017-10-10T12:28:22.036Z,74.99
2017-10-10T12:29:32.836Z,73.48
2017-10-10T12:30:43.190Z,73.61
2017-10-10T12:31:53.222Z,72.88
2017-10-10T12:33:02.930Z,73.1
2017-10-10T12:34:13.289Z,74.27
2017-10-10T12:35:23.329Z,74.52
2017-10-10T12:36:33.011Z,73.94
2017-10-10T12:37:43.031Z,73.39
2017-10-10T12:38:53.404Z,73.3
2017-10-10T12:40:03.424Z,73.14
2017-10-10T12:41:13.784Z,73.47
2017-10-10T12:42:24.166Z,74.3
2017-10-10T12:43:34.561Z,75.23
2017-10-10T12:44:45.186Z,75.1
2017-10-10T12:45:54.862Z,75.68
2017-10-10T12:47:04.907Z,76.22
2017-10-10T12:48:15.283Z,76.32
2017-10-10T12:49:25.299Z,76.09
2017-10-10T12:50:35.294Z,77.15
2017-10-10T12:51:45.312Z,76.92
2017-10-10T12:52:55.659Z,76.63
2017-10-10T12:54:06.156Z,76.72
2017-10-10T12:55:15.837Z,77.26
2017-10-10T12:56:25.533Z,77.26
2017-10-10T12:57:35.890Z,77.26
2017-10-10T12:58:45.919Z,77.55
2017-10-10T12:59:55.957Z,77.03
2017-10-10T13:01:06.356Z,77.9
2017-10-10T13:02:16.689Z,77.42
2017-10-10T13:03:27.035Z,77.58
2017-10-10T13:04:37.384Z,77.38
2017-10-10T13:05:47.399Z,77.58
2017-10-10T13:06:57.764Z,77.28
2017-10-10T13:08:08.116Z,77.67
2017-10-10T13:09:18.478Z,77.86
2017-10-10T13:10:28.514Z,77.63
2017-10-10T13:11:38.843Z,77.44
2017-10-10T13:12:48.889Z,77.25
2017-10-10T13:13:59.267Z,77.73
2017-10-10T13:15:09.655Z,77.34
2017-10-10T13:16:19.988Z,77.63
2017-10-10T13:17:30.009Z,77.15
2017-10-10T13:18:40.385Z,76.51
2017-10-10T13:19:50.730Z,76.61
2017-10-10T13:21:00.757Z,76.86
2017-10-10T13:22:11.119Z,76.8
2017-10-10T13:23:21.159Z,76.71
2017-10-10T13:24:31.510Z,76.71
2017-10-10T13:25:41.859Z,76.71
2017-10-10T13:26:51.900Z,76.61
2017-10-10T13:28:02.896Z,76.76
2017-10-10T13:29:16.696Z,76.57
2017-10-10T13:30:29.614Z,76.48
2017-10-10T13:31:39.333Z,76.76
2017-10-10T13:32:49.682Z,77.25
2017-10-10T13:33:59.701Z,76.96
2017-10-10T13:35:09.771Z,77.25
2017-10-10T13:36:20.177Z,77.15
2017-10-10T13:37:30.209Z,77.31
2017-10-10T13:38:40.556Z,77.69
2017-10-10T13:39:50.927Z,77.31
2017-10-10T13:41:00.935Z,77.59
2017-10-10T13:42:11.348Z,77.69
2017-10-10T13:43:21.384Z,78.23
2017-10-10T13:44:31.427Z,78.23
2017-10-10T13:45:41.787Z,77.84
2017-10-10T13:46:52.146Z,77.94
2017-10-10T13:48:02.530Z,77.94
2017-10-10T13:49:12.537Z,77.94
2017-10-10T13:50:22.585Z,77.84
2017-10-10T13:51:32.923Z,77.94
2017-10-10T13:52:43.264Z,78.09
2017-10-10T13:53:53.287Z,77.9
2017-10-10T13:55:03.650Z,77.9
2017-10-10T13:56:14.028Z,78.09
2017-10-10T13:57:24.095Z,77.9
2017-10-10T13:58:34.450Z,78
2017-10-10T13:59:44.815Z,77.81
2017-10-10T14:00:55.165Z,77.9
2017-10-10T14:02:05.184Z,77.9
2017-10-10T14:03:14.879Z,77.81
2017-10-10T14:04:26.743Z,77.9
2017-10-10T14:05:39.647Z,77.61
2017-10-10T14:06:49.996Z,77.33
2017-10-10T14:08:00.334Z,77.42
2017-10-10T14:09:10.361Z,77.42
2017-10-10T14:10:20.710Z,77.42
2017-10-10T14:11:30.448Z,77.9
2017-10-10T14:12:40.784Z,77.9
2017-10-10T14:13:51.125Z,77.61
2017-10-10T14:15:01.474Z,77.71
2017-10-10T14:16:11.535Z,77.51
2017-10-10T14:17:21.893Z,77.42
2017-10-10T14:18:31.582Z,77.36
2017-10-10T14:19:41.927Z,77.26
2017-10-10T14:20:51.625Z,77.36
2017-10-10T14:22:01.977Z,77.36
2017-10-10T14:23:12.344Z,77.36
2017-10-10T14:24:22.695Z,77.26
2017-10-10T14:25:33.080Z,77.36
2017-10-10T14:26:43.435Z,77.46
2017-10-10T14:27:53.457Z,77.36
2017-10-10T14:29:03.810Z,77.36
2017-10-10T14:30:13.836Z,77.46
2017-10-10T14:31:24.191Z,77.26
2017-10-10T14:32:34.223Z,77.36
2017-10-10T14:33:44.579Z,77.65
2017-10-10T14:34:54.931Z,77.65
2017-10-10T14:37:15.027Z,77.17
2017-10-10T14:38:25.382Z,77.56
2017-10-10T14:39:35.729Z,77.46
2017-10-10T14:40:45.472Z,77.46
2017-10-10T14:41:55.815Z,77.08
2017-10-10T14:43:06.156Z,76.73
2017-10-10T14:44:16.512Z,77.46
2017-10-10T14:45:26.917Z,76.63
2017-10-10T14:46:36.668Z,76.44
2017-10-10T14:47:47.014Z,76.67
2017-10-10T14:48:57.039Z,76.63
2017-10-10T14:50:07.388Z,76.76
2017-10-10T14:51:17.399Z,76.38
2017-10-10T14:52:27.820Z,76.18
2017-10-10T14:53:38.156Z,76.86
2017-10-10T14:54:48.186Z,77.15
2017-10-10T14:55:58.215Z,77.44
2017-10-10T14:57:08.561Z,77.78
2017-10-10T14:58:18.921Z,77.31
2017-10-10T14:59:29.350Z,77.5
2017-10-10T15:00:39.440Z,77.31
2017-10-10T15:01:49.533Z,77.59
2017-10-10T15:02:59.953Z,77.59
2017-10-10T15:04:10.406Z,77.4
2017-10-10T15:05:20.819Z,77.69
2017-10-10T15:06:30.244Z,77.59
2017-10-10T15:07:40.325Z,77.59
2017-10-10T15:08:50.732Z,77.31
2017-10-10T15:10:01.159Z,77.4
2017-10-10T15:11:11.612Z,77.59
2017-10-10T15:12:21.693Z,77.98
2017-10-10T15:13:32.110Z,77.56
2017-10-10T15:14:42.187Z,77.5
2017-10-10T15:15:52.658Z,77.5
2017-10-10T15:17:03.097Z,77.21
2017-10-10T15:18:13.512Z,77.31
2017-10-10T15:19:23.585Z,77.4
2017-10-10T15:20:34.011Z,77.4
2017-10-10T15:21:44.421Z,77.21
2017-10-10T15:22:54.841Z,77.5
2017-10-10T15:24:07.229Z,77.59
2017-10-10T15:25:20.273Z,77.78
2017-10-10T15:26:30.687Z,77.65
2017-10-10T15:27:41.103Z,77.94
2017-10-10T15:28:51.514Z,77.75
2017-10-10T15:30:01.566Z,77.75
2017-10-10T15:31:11.984Z,77.94
2017-10-10T15:32:22.387Z,78.33
2017-10-10T15:33:32.848Z,78.42
2017-10-10T15:34:42.595Z,78.42
2017-10-10T15:35:53.019Z,78.28
2017-10-10T15:37:03.092Z,78.38
2017-10-10T15:38:12.839Z,78.28
2017-10-10T15:39:22.952Z,78.28
2017-10-10T15:40:32.694Z,78.19